Hauptseite
METAR-TAF:

METAR-TAF

Flughäfen :

Flugplatz Padua

Padua, Italien

Breite: 45-23-45N, Länge: 11-50-53E, Höhe: 13 m

Beobachtung

Neuester Wetterbericht von vor 1 Stunde und 16 Minuten, um 12:50 UTC
Wind 2 kt aus unterschiedlichen Richtungen
Temperatur 12°C
Luftfeuchtigkeit 71%
Luftdruck 1008 hPa
Sichtweite: 8000 m
Leicht bewölkt in der Höhe von 1000 ft

METAR: LIPU 241250Z VRB02KT 8000 FEW010 12/07 Q1008

Zeit: 15:06 (14:06 UTC)


TAF: fehlend

Wetterbeobachtungen und Prognosen von mehr als 4000 Flughäfen (METAR und TAF Bericht).

Die verfügbaren Stationen werden durch gelbe und rote Markierungen auf der Karte dargestellt.

Führen Sie die Maus auf sie, um den Namen der Station zu sehen.

Darauf klicken, um die Beobachtung von Wetterbeobachtungen und Prognosen zu sehen.

Um die Karte zu ändern : klicken Sie auf den grünen Tasten mit einem schwarzen Kreuz Zum Vergrößern, auf den grünen Button mit einem Gedankenstrich zu verkleinern, oder auf die grünen Pfeile für benachbarte Karten.


METAR-TAF: